Terminal Aerodrome Forecast
Issued by NWS

Home | Current Version | Previous Version | Text Only | Print | Product List | Glossary On
Versions: 1 2 3 4 5 6 7 8 9 10 11 12 13 14 15 16 17 18 19 20 21 22 23 24
622
FTPA31 PHFO 240540
TAFHNY
TAF
PHNY 240540Z 2406/2506 05006KT P6SM FEW020 BKN100
     FM241900 32008KT P6SM SCT020 BKN100
     FM242300 05011KT P6SM VCSH SCT020 BKN035
     FM250500 05010KT P6SM FEW020 SCT035 BKN050=

USA.gov is the U.S. government's official web portal to all federal, state and local government web resources and services.